sensor_id;sensor_type;location;lat;lon;timestamp;temperature;humidity
20483;DHT22;10400;53.198;6.592;2023-07-31T00:00:27;17.30;99.90
20483;DHT22;10400;53.198;6.592;2023-07-31T00:02:53;17.30;99.90
20483;DHT22;10400;53.198;6.592;2023-07-31T00:05:19;17.30;99.90
20483;DHT22;10400;53.198;6.592;2023-07-31T00:07:45;17.30;99.90
20483;DHT22;10400;53.198;6.592;2023-07-31T00:10:10;17.20;99.90
20483;DHT22;10400;53.198;6.592;2023-07-31T00:12:37;17.20;99.90
20483;DHT22;10400;53.198;6.592;2023-07-31T00:15:03;17.10;99.90
20483;DHT22;10400;53.198;6.592;2023-07-31T00:17:29;17.10;99.90
20483;DHT22;10400;53.198;6.592;2023-07-31T00:19:55;17.10;99.90
20483;DHT22;10400;53.198;6.592;2023-07-31T00:22:21;17.10;99.90
20483;DHT22;10400;53.198;6.592;2023-07-31T00:24:46;17.00;99.90
20483;DHT22;10400;53.198;6.592;2023-07-31T00:27:12;16.90;99.90
20483;DHT22;10400;53.198;6.592;2023-07-31T00:29:38;16.90;99.90
20483;DHT22;10400;53.198;6.592;2023-07-31T00:32:04;16.90;99.90
20483;DHT22;10400;53.198;6.592;2023-07-31T00:34:29;16.90;99.90
20483;DHT22;10400;53.198;6.592;2023-07-31T00:36:55;16.90;99.90
20483;DHT22;10400;53.198;6.592;2023-07-31T00:39:21;16.80;99.90
20483;DHT22;10400;53.198;6.592;2023-07-31T00:41:46;16.80;99.90
20483;DHT22;10400;53.198;6.592;2023-07-31T00:44:12;16.80;99.90
20483;DHT22;10400;53.198;6.592;2023-07-31T00:46:37;16.80;99.90
20483;DHT22;10400;53.198;6.592;2023-07-31T00:49:03;16.80;99.90
20483;DHT22;10400;53.198;6.592;2023-07-31T00:51:30;16.70;99.90
20483;DHT22;10400;53.198;6.592;2023-07-31T00:53:55;16.70;99.90
20483;DHT22;10400;53.198;6.592;2023-07-31T00:56:21;16.70;99.90
20483;DHT22;10400;53.198;6.592;2023-07-31T00:58:47;16.70;99.90
20483;DHT22;10400;53.198;6.592;2023-07-31T01:01:13;16.70;99.90
20483;DHT22;10400;53.198;6.592;2023-07-31T01:03:39;16.70;99.90
20483;DHT22;10400;53.198;6.592;2023-07-31T01:11:21;16.60;99.90
20483;DHT22;10400;53.198;6.592;2023-07-31T01:13:50;16.60;99.90
20483;DHT22;10400;53.198;6.592;2023-07-31T01:16:16;16.60;99.90
20483;DHT22;10400;53.198;6.592;2023-07-31T01:18:42;16.50;99.90
20483;DHT22;10400;53.198;6.592;2023-07-31T01:21:48;16.50;99.90
20483;DHT22;10400;53.198;6.592;2023-07-31T01:24:29;16.50;99.90
20483;DHT22;10400;53.198;6.592;2023-07-31T01:27:09;16.50;99.90
20483;DHT22;10400;53.198;6.592;2023-07-31T01:29:47;16.50;99.90
20483;DHT22;10400;53.198;6.592;2023-07-31T01:32:15;16.40;99.90
20483;DHT22;10400;53.198;6.592;2023-07-31T01:34:43;16.40;99.90
20483;DHT22;10400;53.198;6.592;2023-07-31T01:37:09;16.40;99.90
20483;DHT22;10400;53.198;6.592;2023-07-31T01:39:35;16.30;99.90
20483;DHT22;10400;53.198;6.592;2023-07-31T01:42:00;16.40;99.90
20483;DHT22;10400;53.198;6.592;2023-07-31T01:44:28;16.40;99.90
20483;DHT22;10400;53.198;6.592;2023-07-31T01:46:53;16.40;99.90
20483;DHT22;10400;53.198;6.592;2023-07-31T01:49:19;16.40;99.90
20483;DHT22;10400;53.198;6.592;2023-07-31T01:51:45;16.40;99.90
20483;DHT22;10400;53.198;6.592;2023-07-31T01:54:10;16.40;99.90
20483;DHT22;10400;53.198;6.592;2023-07-31T01:56:36;16.40;99.90
20483;DHT22;10400;53.198;6.592;2023-07-31T01:59:02;16.40;99.90
20483;DHT22;10400;53.198;6.592;2023-07-31T02:01:28;16.40;99.90
20483;DHT22;10400;53.198;6.592;2023-07-31T02:03:53;16.40;99.90
20483;DHT22;10400;53.198;6.592;2023-07-31T02:06:19;16.40;99.90
20483;DHT22;10400;53.198;6.592;2023-07-31T02:08:45;16.40;99.90
20483;DHT22;10400;53.198;6.592;2023-07-31T02:11:10;16.40;99.90
20483;DHT22;10400;53.198;6.592;2023-07-31T02:13:36;16.50;99.90
20483;DHT22;10400;53.198;6.592;2023-07-31T02:16:02;16.40;99.90
20483;DHT22;10400;53.198;6.592;2023-07-31T02:18:27;16.40;99.90
20483;DHT22;10400;53.198;6.592;2023-07-31T02:20:53;16.40;99.90
20483;DHT22;10400;53.198;6.592;2023-07-31T02:23:19;16.40;99.90
20483;DHT22;10400;53.198;6.592;2023-07-31T02:25:45;16.40;99.90
20483;DHT22;10400;53.198;6.592;2023-07-31T02:28:11;16.40;99.90
20483;DHT22;10400;53.198;6.592;2023-07-31T02:30:36;16.40;99.90
20483;DHT22;10400;53.198;6.592;2023-07-31T02:33:02;16.40;99.90
20483;DHT22;10400;53.198;6.592;2023-07-31T02:35:28;16.40;99.90
20483;DHT22;10400;53.198;6.592;2023-07-31T02:37:53;16.40;99.90
20483;DHT22;10400;53.198;6.592;2023-07-31T02:40:19;16.40;99.90
20483;DHT22;10400;53.198;6.592;2023-07-31T02:42:45;16.40;99.90
20483;DHT22;10400;53.198;6.592;2023-07-31T02:45:10;16.50;99.90
20483;DHT22;10400;53.198;6.592;2023-07-31T02:47:36;16.50;99.90
20483;DHT22;10400;53.198;6.592;2023-07-31T02:50:03;16.40;99.90
20483;DHT22;10400;53.198;6.592;2023-07-31T02:52:29;16.50;99.90
20483;DHT22;10400;53.198;6.592;2023-07-31T02:54:54;16.50;99.90
20483;DHT22;10400;53.198;6.592;2023-07-31T02:57:20;16.50;99.90
20483;DHT22;10400;53.198;6.592;2023-07-31T02:59:46;16.50;99.90
20483;DHT22;10400;53.198;6.592;2023-07-31T03:02:11;16.50;99.90
20483;DHT22;10400;53.198;6.592;2023-07-31T03:04:38;16.40;99.90
20483;DHT22;10400;53.198;6.592;2023-07-31T03:07:04;16.50;99.90
20483;DHT22;10400;53.198;6.592;2023-07-31T03:09:30;16.40;99.90
20483;DHT22;10400;53.198;6.592;2023-07-31T03:11:55;16.40;99.90
20483;DHT22;10400;53.198;6.592;2023-07-31T03:14:21;16.50;99.90
20483;DHT22;10400;53.198;6.592;2023-07-31T03:16:48;16.50;99.90
20483;DHT22;10400;53.198;6.592;2023-07-31T03:19:14;16.40;99.90
20483;DHT22;10400;53.198;6.592;2023-07-31T03:21:40;16.50;99.90
20483;DHT22;10400;53.198;6.592;2023-07-31T03:24:06;16.40;99.90
20483;DHT22;10400;53.198;6.592;2023-07-31T03:26:32;16.40;99.90
20483;DHT22;10400;53.198;6.592;2023-07-31T03:28:58;16.40;99.90
20483;DHT22;10400;53.198;6.592;2023-07-31T03:31:23;16.40;99.90
20483;DHT22;10400;53.198;6.592;2023-07-31T03:33:49;16.40;99.90
20483;DHT22;10400;53.198;6.592;2023-07-31T03:36:15;16.40;99.90
20483;DHT22;10400;53.198;6.592;2023-07-31T03:38:40;16.50;99.90
20483;DHT22;10400;53.198;6.592;2023-07-31T03:41:06;16.40;99.90
20483;DHT22;10400;53.198;6.592;2023-07-31T03:43:32;16.40;99.90
20483;DHT22;10400;53.198;6.592;2023-07-31T03:46:00;16.40;99.90
20483;DHT22;10400;53.198;6.592;2023-07-31T03:48:26;16.40;99.90
20483;DHT22;10400;53.198;6.592;2023-07-31T03:50:51;16.40;99.90
20483;DHT22;10400;53.198;6.592;2023-07-31T03:53:17;16.40;99.90
20483;DHT22;10400;53.198;6.592;2023-07-31T03:55:43;16.40;99.90
20483;DHT22;10400;53.198;6.592;2023-07-31T03:58:08;16.40;99.90
20483;DHT22;10400;53.198;6.592;2023-07-31T04:00:34;16.40;99.90
20483;DHT22;10400;53.198;6.592;2023-07-31T04:03:00;16.40;99.90
20483;DHT22;10400;53.198;6.592;2023-07-31T04:05:25;16.40;99.90
20483;DHT22;10400;53.198;6.592;2023-07-31T04:07:51;16.40;99.90
20483;DHT22;10400;53.198;6.592;2023-07-31T04:10:17;16.30;99.90
20483;DHT22;10400;53.198;6.592;2023-07-31T04:12:42;16.40;99.90
20483;DHT22;10400;53.198;6.592;2023-07-31T04:15:08;16.40;99.90
20483;DHT22;10400;53.198;6.592;2023-07-31T04:17:34;16.40;99.90
20483;DHT22;10400;53.198;6.592;2023-07-31T04:20:00;16.40;99.90
20483;DHT22;10400;53.198;6.592;2023-07-31T04:22:25;16.50;99.90
20483;DHT22;10400;53.198;6.592;2023-07-31T04:24:51;16.40;99.90
20483;DHT22;10400;53.198;6.592;2023-07-31T04:27:16;16.40;99.90
20483;DHT22;10400;53.198;6.592;2023-07-31T04:29:42;16.50;99.90
20483;DHT22;10400;53.198;6.592;2023-07-31T04:32:09;16.40;99.90
20483;DHT22;10400;53.198;6.592;2023-07-31T04:34:35;16.40;99.90
20483;DHT22;10400;53.198;6.592;2023-07-31T04:37:01;16.40;99.90
20483;DHT22;10400;53.198;6.592;2023-07-31T04:39:26;16.40;99.90
20483;DHT22;10400;53.198;6.592;2023-07-31T04:41:52;16.40;99.90
20483;DHT22;10400;53.198;6.592;2023-07-31T04:44:17;16.40;99.90
20483;DHT22;10400;53.198;6.592;2023-07-31T04:46:43;16.40;99.90
20483;DHT22;10400;53.198;6.592;2023-07-31T04:49:10;16.50;99.90
20483;DHT22;10400;53.198;6.592;2023-07-31T04:51:36;16.40;99.90
20483;DHT22;10400;53.198;6.592;2023-07-31T04:54:01;16.50;99.90
20483;DHT22;10400;53.198;6.592;2023-07-31T04:56:27;16.40;99.90
20483;DHT22;10400;53.198;6.592;2023-07-31T04:58:52;16.50;99.90
20483;DHT22;10400;53.198;6.592;2023-07-31T05:01:18;16.50;99.90
20483;DHT22;10400;53.198;6.592;2023-07-31T05:03:44;16.50;99.90
20483;DHT22;10400;53.198;6.592;2023-07-31T05:06:09;16.50;99.90
20483;DHT22;10400;53.198;6.592;2023-07-31T05:08:35;16.50;99.90
20483;DHT22;10400;53.198;6.592;2023-07-31T05:11:01;16.50;99.90
20483;DHT22;10400;53.198;6.592;2023-07-31T05:13:27;16.60;99.90
20483;DHT22;10400;53.198;6.592;2023-07-31T05:15:53;16.50;99.90
20483;DHT22;10400;53.198;6.592;2023-07-31T05:18:19;16.50;99.90
20483;DHT22;10400;53.198;6.592;2023-07-31T05:20:45;16.50;99.90
20483;DHT22;10400;53.198;6.592;2023-07-31T05:23:10;16.40;99.90
20483;DHT22;10400;53.198;6.592;2023-07-31T05:25:36;16.50;99.90
20483;DHT22;10400;53.198;6.592;2023-07-31T05:28:01;16.50;99.90
20483;DHT22;10400;53.198;6.592;2023-07-31T05:30:30;16.50;99.90
20483;DHT22;10400;53.198;6.592;2023-07-31T05:32:56;16.40;99.90
20483;DHT22;10400;53.198;6.592;2023-07-31T05:35:21;16.50;99.90
20483;DHT22;10400;53.198;6.592;2023-07-31T05:37:47;16.50;99.90
20483;DHT22;10400;53.198;6.592;2023-07-31T05:40:13;16.50;99.90
20483;DHT22;10400;53.198;6.592;2023-07-31T05:42:39;16.50;99.90
20483;DHT22;10400;53.198;6.592;2023-07-31T05:45:06;16.50;99.90
20483;DHT22;10400;53.198;6.592;2023-07-31T05:47:32;16.50;99.90
20483;DHT22;10400;53.198;6.592;2023-07-31T05:49:58;16.50;99.90
20483;DHT22;10400;53.198;6.592;2023-07-31T05:52:23;16.60;99.90
20483;DHT22;10400;53.198;6.592;2023-07-31T05:54:49;16.60;99.90
20483;DHT22;10400;53.198;6.592;2023-07-31T05:57:15;16.70;99.90
20483;DHT22;10400;53.198;6.592;2023-07-31T05:59:41;16.70;99.90
20483;DHT22;10400;53.198;6.592;2023-07-31T06:02:07;16.70;99.90
20483;DHT22;10400;53.198;6.592;2023-07-31T06:04:33;16.70;99.90
20483;DHT22;10400;53.198;6.592;2023-07-31T06:06:58;16.70;99.90
20483;DHT22;10400;53.198;6.592;2023-07-31T06:09:24;16.80;99.90
20483;DHT22;10400;53.198;6.592;2023-07-31T06:11:51;16.80;99.90
20483;DHT22;10400;53.198;6.592;2023-07-31T06:14:17;16.80;99.90
20483;DHT22;10400;53.198;6.592;2023-07-31T06:16:43;16.80;99.90
20483;DHT22;10400;53.198;6.592;2023-07-31T06:19:09;16.80;99.90
20483;DHT22;10400;53.198;6.592;2023-07-31T06:21:35;16.90;99.90
20483;DHT22;10400;53.198;6.592;2023-07-31T06:24:03;16.90;99.90
20483;DHT22;10400;53.198;6.592;2023-07-31T06:26:29;16.90;99.90
20483;DHT22;10400;53.198;6.592;2023-07-31T06:28:55;16.90;99.90
20483;DHT22;10400;53.198;6.592;2023-07-31T06:31:20;16.90;99.90
20483;DHT22;10400;53.198;6.592;2023-07-31T06:33:49;17.00;99.90
20483;DHT22;10400;53.198;6.592;2023-07-31T06:36:14;17.00;99.90
20483;DHT22;10400;53.198;6.592;2023-07-31T06:38:40;17.00;99.90
20483;DHT22;10400;53.198;6.592;2023-07-31T06:41:06;17.10;99.90
20483;DHT22;10400;53.198;6.592;2023-07-31T06:43:31;17.10;99.90
20483;DHT22;10400;53.198;6.592;2023-07-31T06:45:57;17.20;99.90
20483;DHT22;10400;53.198;6.592;2023-07-31T06:48:23;17.30;99.90
20483;DHT22;10400;53.198;6.592;2023-07-31T06:50:48;17.40;99.90
20483;DHT22;10400;53.198;6.592;2023-07-31T06:53:14;17.40;99.90
20483;DHT22;10400;53.198;6.592;2023-07-31T06:55:40;17.50;99.90
20483;DHT22;10400;53.198;6.592;2023-07-31T06:58:05;17.70;99.90
20483;DHT22;10400;53.198;6.592;2023-07-31T07:00:31;17.80;99.90
20483;DHT22;10400;53.198;6.592;2023-07-31T07:02:57;17.80;99.90
20483;DHT22;10400;53.198;6.592;2023-07-31T07:05:23;17.80;99.90
20483;DHT22;10400;53.198;6.592;2023-07-31T07:07:49;17.90;99.90
20483;DHT22;10400;53.198;6.592;2023-07-31T07:10:16;17.90;99.90
20483;DHT22;10400;53.198;6.592;2023-07-31T07:12:42;17.90;99.90
20483;DHT22;10400;53.198;6.592;2023-07-31T07:15:08;17.90;99.90
20483;DHT22;10400;53.198;6.592;2023-07-31T07:17:34;17.90;99.90
20483;DHT22;10400;53.198;6.592;2023-07-31T07:20:00;17.90;99.90
20483;DHT22;10400;53.198;6.592;2023-07-31T07:22:26;17.90;99.90
20483;DHT22;10400;53.198;6.592;2023-07-31T07:24:53;17.90;99.90
20483;DHT22;10400;53.198;6.592;2023-07-31T07:27:19;17.80;99.90
20483;DHT22;10400;53.198;6.592;2023-07-31T07:29:46;17.80;99.90
20483;DHT22;10400;53.198;6.592;2023-07-31T07:32:12;17.80;99.90
20483;DHT22;10400;53.198;6.592;2023-07-31T07:34:37;17.90;99.90
20483;DHT22;10400;53.198;6.592;2023-07-31T07:37:03;17.70;99.90
20483;DHT22;10400;53.198;6.592;2023-07-31T07:39:29;17.70;99.90
20483;DHT22;10400;53.198;6.592;2023-07-31T07:41:55;17.80;99.90
20483;DHT22;10400;53.198;6.592;2023-07-31T07:44:21;17.80;99.90
20483;DHT22;10400;53.198;6.592;2023-07-31T07:46:46;17.80;99.90
20483;DHT22;10400;53.198;6.592;2023-07-31T07:49:12;17.70;99.90
20483;DHT22;10400;53.198;6.592;2023-07-31T07:51:38;17.70;99.90
20483;DHT22;10400;53.198;6.592;2023-07-31T07:54:04;17.60;99.90
20483;DHT22;10400;53.198;6.592;2023-07-31T07:56:29;17.60;99.90
20483;DHT22;10400;53.198;6.592;2023-07-31T07:58:55;17.60;99.90
20483;DHT22;10400;53.198;6.592;2023-07-31T08:01:21;17.50;99.90
20483;DHT22;10400;53.198;6.592;2023-07-31T08:03:47;17.50;99.90
20483;DHT22;10400;53.198;6.592;2023-07-31T08:06:14;17.60;99.90
20483;DHT22;10400;53.198;6.592;2023-07-31T08:08:40;17.50;99.90
20483;DHT22;10400;53.198;6.592;2023-07-31T08:11:06;17.60;99.90
20483;DHT22;10400;53.198;6.592;2023-07-31T08:13:31;17.60;99.90
20483;DHT22;10400;53.198;6.592;2023-07-31T08:15:57;17.60;99.90
20483;DHT22;10400;53.198;6.592;2023-07-31T08:18:23;17.70;99.90
20483;DHT22;10400;53.198;6.592;2023-07-31T08:20:48;17.70;99.90
20483;DHT22;10400;53.198;6.592;2023-07-31T08:23:14;17.70;99.90
20483;DHT22;10400;53.198;6.592;2023-07-31T08:25:40;17.70;99.90
20483;DHT22;10400;53.198;6.592;2023-07-31T08:28:06;17.80;99.90
20483;DHT22;10400;53.198;6.592;2023-07-31T08:30:32;17.80;99.90
20483;DHT22;10400;53.198;6.592;2023-07-31T08:32:59;17.90;99.90
20483;DHT22;10400;53.198;6.592;2023-07-31T08:35:25;17.90;99.90
20483;DHT22;10400;53.198;6.592;2023-07-31T08:37:51;17.90;99.90
20483;DHT22;10400;53.198;6.592;2023-07-31T08:40:17;18.00;99.90
20483;DHT22;10400;53.198;6.592;2023-07-31T08:42:53;18.00;99.90
20483;DHT22;10400;53.198;6.592;2023-07-31T08:45:19;18.10;99.90
20483;DHT22;10400;53.198;6.592;2023-07-31T08:47:47;18.20;99.90
20483;DHT22;10400;53.198;6.592;2023-07-31T08:50:14;18.30;99.90
20483;DHT22;10400;53.198;6.592;2023-07-31T08:52:40;18.30;99.90
20483;DHT22;10400;53.198;6.592;2023-07-31T08:55:06;18.30;99.90
20483;DHT22;10400;53.198;6.592;2023-07-31T08:57:34;18.30;99.90
20483;DHT22;10400;53.198;6.592;2023-07-31T09:00:01;18.40;99.90
20483;DHT22;10400;53.198;6.592;2023-07-31T09:02:36;18.40;99.90
20483;DHT22;10400;53.198;6.592;2023-07-31T09:05:05;18.30;99.90
20483;DHT22;10400;53.198;6.592;2023-07-31T09:07:31;18.30;99.90
20483;DHT22;10400;53.198;6.592;2023-07-31T09:09:59;18.50;99.90
20483;DHT22;10400;53.198;6.592;2023-07-31T09:12:25;18.50;99.90
20483;DHT22;10400;53.198;6.592;2023-07-31T09:14:51;18.50;99.90
20483;DHT22;10400;53.198;6.592;2023-07-31T09:17:31;18.40;99.90
20483;DHT22;10400;53.198;6.592;2023-07-31T09:19:58;18.40;99.90
20483;DHT22;10400;53.198;6.592;2023-07-31T09:22:34;18.40;99.90
20483;DHT22;10400;53.198;6.592;2023-07-31T09:27:58;18.50;99.90
20483;DHT22;10400;53.198;6.592;2023-07-31T09:30:24;18.40;99.90
20483;DHT22;10400;53.198;6.592;2023-07-31T09:32:51;18.50;99.90
20483;DHT22;10400;53.198;6.592;2023-07-31T09:35:31;18.50;99.90
20483;DHT22;10400;53.198;6.592;2023-07-31T09:38:19;18.50;99.90
20483;DHT22;10400;53.198;6.592;2023-07-31T09:40:46;18.50;99.90
20483;DHT22;10400;53.198;6.592;2023-07-31T09:43:13;18.50;99.90
20483;DHT22;10400;53.198;6.592;2023-07-31T09:45:43;18.60;99.90
20483;DHT22;10400;53.198;6.592;2023-07-31T09:48:11;18.60;99.90
20483;DHT22;10400;53.198;6.592;2023-07-31T09:50:38;18.60;99.90
20483;DHT22;10400;53.198;6.592;2023-07-31T09:53:05;18.70;99.90
20483;DHT22;10400;53.198;6.592;2023-07-31T09:55:31;18.70;99.90
20483;DHT22;10400;53.198;6.592;2023-07-31T09:58:04;18.80;99.90
20483;DHT22;10400;53.198;6.592;2023-07-31T10:00:31;18.70;99.90
20483;DHT22;10400;53.198;6.592;2023-07-31T10:03:02;18.70;99.90
20483;DHT22;10400;53.198;6.592;2023-07-31T10:05:35;18.70;99.90
20483;DHT22;10400;53.198;6.592;2023-07-31T10:08:01;18.70;99.90
20483;DHT22;10400;53.198;6.592;2023-07-31T10:10:27;18.70;99.90
20483;DHT22;10400;53.198;6.592;2023-07-31T10:12:54;18.70;99.90
20483;DHT22;10400;53.198;6.592;2023-07-31T10:15:21;18.70;99.90
20483;DHT22;10400;53.198;6.592;2023-07-31T10:17:48;18.70;99.90
20483;DHT22;10400;53.198;6.592;2023-07-31T10:20:15;18.70;99.90
20483;DHT22;10400;53.198;6.592;2023-07-31T10:22:42;18.70;99.90
20483;DHT22;10400;53.198;6.592;2023-07-31T10:25:09;18.70;99.90
20483;DHT22;10400;53.198;6.592;2023-07-31T10:27:39;18.60;99.90
20483;DHT22;10400;53.198;6.592;2023-07-31T10:30:07;18.70;99.90
20483;DHT22;10400;53.198;6.592;2023-07-31T10:32:34;18.70;99.90
20483;DHT22;10400;53.198;6.592;2023-07-31T10:35:02;18.80;99.90
20483;DHT22;10400;53.198;6.592;2023-07-31T10:37:36;18.80;99.90
20483;DHT22;10400;53.198;6.592;2023-07-31T10:40:09;18.80;99.90
20483;DHT22;10400;53.198;6.592;2023-07-31T10:42:52;18.80;99.90
20483;DHT22;10400;53.198;6.592;2023-07-31T10:45:44;18.90;99.90
20483;DHT22;10400;53.198;6.592;2023-07-31T10:48:17;19.10;99.90
20483;DHT22;10400;53.198;6.592;2023-07-31T10:50:55;19.10;99.90
20483;DHT22;10400;53.198;6.592;2023-07-31T10:53:30;19.30;99.90
20483;DHT22;10400;53.198;6.592;2023-07-31T10:56:04;19.50;99.90
20483;DHT22;10400;53.198;6.592;2023-07-31T10:58:30;19.90;99.90
20483;DHT22;10400;53.198;6.592;2023-07-31T11:01:02;20.30;99.90
20483;DHT22;10400;53.198;6.592;2023-07-31T11:03:46;20.30;99.90
20483;DHT22;10400;53.198;6.592;2023-07-31T11:06:13;20.40;99.90
20483;DHT22;10400;53.198;6.592;2023-07-31T11:08:46;20.30;99.90
20483;DHT22;10400;53.198;6.592;2023-07-31T11:11:14;20.30;99.90
20483;DHT22;10400;53.198;6.592;2023-07-31T11:16:12;20.00;99.90
20483;DHT22;10400;53.198;6.592;2023-07-31T11:18:41;19.90;99.90
20483;DHT22;10400;53.198;6.592;2023-07-31T11:21:08;19.80;99.90
20483;DHT22;10400;53.198;6.592;2023-07-31T11:23:37;19.90;99.90
20483;DHT22;10400;53.198;6.592;2023-07-31T11:26:05;20.10;99.90
20483;DHT22;10400;53.198;6.592;2023-07-31T11:28:32;20.10;99.90
20483;DHT22;10400;53.198;6.592;2023-07-31T11:30:59;20.20;99.90
20483;DHT22;10400;53.198;6.592;2023-07-31T11:33:25;20.30;99.90
20483;DHT22;10400;53.198;6.592;2023-07-31T11:35:51;20.20;99.90
20483;DHT22;10400;53.198;6.592;2023-07-31T11:40:53;20.10;99.90
20483;DHT22;10400;53.198;6.592;2023-07-31T11:43:19;20.20;99.90
20483;DHT22;10400;53.198;6.592;2023-07-31T11:45:51;20.00;99.90
20483;DHT22;10400;53.198;6.592;2023-07-31T11:48:27;19.80;99.90
20483;DHT22;10400;53.198;6.592;2023-07-31T11:51:04;19.80;99.90
20483;DHT22;10400;53.198;6.592;2023-07-31T11:53:51;19.60;99.90
20483;DHT22;10400;53.198;6.592;2023-07-31T11:56:19;19.50;99.90
20483;DHT22;10400;53.198;6.592;2023-07-31T11:58:50;19.40;99.90
20483;DHT22;10400;53.198;6.592;2023-07-31T12:01:19;19.30;99.90
20483;DHT22;10400;53.198;6.592;2023-07-31T12:03:46;19.40;99.90
20483;DHT22;10400;53.198;6.592;2023-07-31T12:06:12;19.40;99.90
20483;DHT22;10400;53.198;6.592;2023-07-31T12:08:37;19.40;99.90
20483;DHT22;10400;53.198;6.592;2023-07-31T12:11:05;19.50;99.90
20483;DHT22;10400;53.198;6.592;2023-07-31T12:13:32;19.60;99.90
20483;DHT22;10400;53.198;6.592;2023-07-31T12:16:00;19.70;99.90
20483;DHT22;10400;53.198;6.592;2023-07-31T12:18:30;19.70;99.90
20483;DHT22;10400;53.198;6.592;2023-07-31T12:21:00;19.70;99.90
20483;DHT22;10400;53.198;6.592;2023-07-31T12:23:31;19.90;99.90
20483;DHT22;10400;53.198;6.592;2023-07-31T12:26:08;19.90;99.90
20483;DHT22;10400;53.198;6.592;2023-07-31T12:28:38;19.80;99.90
20483;DHT22;10400;53.198;6.592;2023-07-31T12:31:04;19.70;99.90
20483;DHT22;10400;53.198;6.592;2023-07-31T12:33:31;19.70;99.90
20483;DHT22;10400;53.198;6.592;2023-07-31T12:35:59;19.70;99.90
20483;DHT22;10400;53.198;6.592;2023-07-31T12:38:25;19.80;99.90
20483;DHT22;10400;53.198;6.592;2023-07-31T12:40:51;19.80;99.90
20483;DHT22;10400;53.198;6.592;2023-07-31T12:43:17;19.80;99.90
20483;DHT22;10400;53.198;6.592;2023-07-31T12:45:42;20.00;99.90
20483;DHT22;10400;53.198;6.592;2023-07-31T12:48:08;20.10;99.90
20483;DHT22;10400;53.198;6.592;2023-07-31T12:50:34;20.00;99.90
20483;DHT22;10400;53.198;6.592;2023-07-31T12:53:02;20.20;99.90
20483;DHT22;10400;53.198;6.592;2023-07-31T12:55:29;20.30;99.90
20483;DHT22;10400;53.198;6.592;2023-07-31T12:57:55;20.10;99.90
20483;DHT22;10400;53.198;6.592;2023-07-31T13:00:21;20.20;99.90
20483;DHT22;10400;53.198;6.592;2023-07-31T13:02:47;20.10;99.90
20483;DHT22;10400;53.198;6.592;2023-07-31T13:05:13;20.10;99.90
20483;DHT22;10400;53.198;6.592;2023-07-31T13:07:39;20.10;99.90
20483;DHT22;10400;53.198;6.592;2023-07-31T13:10:06;20.00;99.90
20483;DHT22;10400;53.198;6.592;2023-07-31T13:12:32;19.80;99.90
20483;DHT22;10400;53.198;6.592;2023-07-31T13:14:57;19.70;99.90
20483;DHT22;10400;53.198;6.592;2023-07-31T13:17:23;19.60;99.90
20483;DHT22;10400;53.198;6.592;2023-07-31T13:19:49;19.50;99.90
20483;DHT22;10400;53.198;6.592;2023-07-31T13:22:14;19.60;99.90
20483;DHT22;10400;53.198;6.592;2023-07-31T13:24:41;19.60;99.90
20483;DHT22;10400;53.198;6.592;2023-07-31T13:27:07;19.70;99.90
20483;DHT22;10400;53.198;6.592;2023-07-31T13:29:32;19.80;99.90
20483;DHT22;10400;53.198;6.592;2023-07-31T13:31:58;19.70;99.90
20483;DHT22;10400;53.198;6.592;2023-07-31T13:34:24;19.90;99.90
20483;DHT22;10400;53.198;6.592;2023-07-31T13:36:49;19.80;99.90
20483;DHT22;10400;53.198;6.592;2023-07-31T13:39:15;19.90;99.90
20483;DHT22;10400;53.198;6.592;2023-07-31T13:41:42;19.90;99.90
20483;DHT22;10400;53.198;6.592;2023-07-31T13:44:07;19.90;99.90
20483;DHT22;10400;53.198;6.592;2023-07-31T13:46:33;20.10;99.90
20483;DHT22;10400;53.198;6.592;2023-07-31T13:48:59;20.10;99.90
20483;DHT22;10400;53.198;6.592;2023-07-31T13:51:25;20.30;99.90
20483;DHT22;10400;53.198;6.592;2023-07-31T13:53:51;20.40;99.90
20483;DHT22;10400;53.198;6.592;2023-07-31T13:56:17;20.50;99.90
20483;DHT22;10400;53.198;6.592;2023-07-31T13:58:42;20.40;99.90
20483;DHT22;10400;53.198;6.592;2023-07-31T14:01:08;20.40;99.90
20483;DHT22;10400;53.198;6.592;2023-07-31T14:03:34;20.50;99.90
20483;DHT22;10400;53.198;6.592;2023-07-31T14:06:00;20.40;99.90
20483;DHT22;10400;53.198;6.592;2023-07-31T14:08:25;20.60;99.90
20483;DHT22;10400;53.198;6.592;2023-07-31T14:10:51;20.80;99.90
20483;DHT22;10400;53.198;6.592;2023-07-31T14:13:17;20.70;99.90
20483;DHT22;10400;53.198;6.592;2023-07-31T14:15:42;20.60;99.90
20483;DHT22;10400;53.198;6.592;2023-07-31T14:18:08;20.60;99.90
20483;DHT22;10400;53.198;6.592;2023-07-31T14:20:34;20.40;99.90
20483;DHT22;10400;53.198;6.592;2023-07-31T14:23:01;20.40;99.90
20483;DHT22;10400;53.198;6.592;2023-07-31T14:25:27;20.30;99.90
20483;DHT22;10400;53.198;6.592;2023-07-31T14:27:52;20.30;99.90
20483;DHT22;10400;53.198;6.592;2023-07-31T14:30:18;20.30;99.90
20483;DHT22;10400;53.198;6.592;2023-07-31T14:32:44;20.30;99.90
20483;DHT22;10400;53.198;6.592;2023-07-31T14:35:09;20.40;99.90
20483;DHT22;10400;53.198;6.592;2023-07-31T14:37:43;20.40;99.90
20483;DHT22;10400;53.198;6.592;2023-07-31T14:40:10;20.40;99.90
20483;DHT22;10400;53.198;6.592;2023-07-31T14:42:36;20.30;99.90
20483;DHT22;10400;53.198;6.592;2023-07-31T14:45:05;20.40;99.90
20483;DHT22;10400;53.198;6.592;2023-07-31T14:47:31;20.20;99.90
20483;DHT22;10400;53.198;6.592;2023-07-31T14:49:57;20.20;99.90
20483;DHT22;10400;53.198;6.592;2023-07-31T14:52:23;20.10;99.90
20483;DHT22;10400;53.198;6.592;2023-07-31T14:54:49;20.10;99.90
20483;DHT22;10400;53.198;6.592;2023-07-31T14:57:14;20.20;99.90
20483;DHT22;10400;53.198;6.592;2023-07-31T14:59:40;20.10;99.90
20483;DHT22;10400;53.198;6.592;2023-07-31T15:02:10;20.00;99.90
20483;DHT22;10400;53.198;6.592;2023-07-31T15:04:36;20.10;99.90
20483;DHT22;10400;53.198;6.592;2023-07-31T15:07:02;20.10;99.90
20483;DHT22;10400;53.198;6.592;2023-07-31T15:09:28;20.10;99.90
20483;DHT22;10400;53.198;6.592;2023-07-31T15:11:53;20.00;99.90
20483;DHT22;10400;53.198;6.592;2023-07-31T15:14:19;20.10;99.90
20483;DHT22;10400;53.198;6.592;2023-07-31T15:16:45;20.00;99.90
20483;DHT22;10400;53.198;6.592;2023-07-31T15:19:11;20.10;99.90
20483;DHT22;10400;53.198;6.592;2023-07-31T15:21:37;20.00;99.90
20483;DHT22;10400;53.198;6.592;2023-07-31T15:24:03;20.00;99.90
20483;DHT22;10400;53.198;6.592;2023-07-31T15:26:29;20.10;99.90
20483;DHT22;10400;53.198;6.592;2023-07-31T15:29:05;20.10;99.90
20483;DHT22;10400;53.198;6.592;2023-07-31T15:31:43;20.10;99.90
20483;DHT22;10400;53.198;6.592;2023-07-31T15:34:09;20.10;99.90
20483;DHT22;10400;53.198;6.592;2023-07-31T15:36:35;20.20;99.90
20483;DHT22;10400;53.198;6.592;2023-07-31T15:39:00;20.20;99.90
20483;DHT22;10400;53.198;6.592;2023-07-31T15:41:26;20.20;99.90